General Aviation Weather

Text Reports

Enter one or more of the following location identifiers separated by a space:

Zip Code, Four-Character ICAO or Three-Character IATA airport codes.

METAR - Aviation Routine Weather Report
KELZ - Wellsville, New York
Updated at 5:56 PM GMT on August 22, 2014 (1:56 PM EDT):
METAR KELZ 221756Z AUTO 00000KT 10SM SCT075 24/17 A3004 RMK AO2 SLP161 T02440172 10244 20183 58007
TAF - Terminal Area Forecast
KELZ - Wellsville, New York
Updated at 5:56 PM GMT on August 22, 2014 (1:56 PM EDT):
No TAF is currently available for this location.
Decoded:
No decoded TAF is available.
PIREP - Pilot Weather Report
KELZ - Wellsville, New York
Updated at 5:56 PM GMT on August 22, 2014 (1:56 PM EDT):
No PIREP is currently available for this location.
AIRMET - Airmens Meteorological Information
KELZ - Wellsville, New York
Updated at 5:56 PM GMT on August 22, 2014 (1:56 PM EDT):
No AIRMET is currently available for this location.
SIGMET - Significant Meteorological Information
KELZ - Wellsville, New York
Updated at 5:56 PM GMT on August 22, 2014 (1:56 PM EDT):
No SIGMET is currently available for this location.
NOTAM - Notice to Airmen
KELZ - Wellsville, New York
Updated at 5:56 PM GMT on August 22, 2014 (1:56 PM EDT):
No NOTAM is currently available for this location.
Forecast Area
KELZ - Wellsville, New York
Updated at 5:56 PM GMT on August 22, 2014 (1:56 PM EDT):
No NOTAM is currently available for this location.
Aviation Weather Maps